sensor_id;sensor_type;location;lat;lon;timestamp;temperature;humidity
23544;DHT22;11950;51.230;4.012;2023-02-01T00:00:34;7.30;99.90
23544;DHT22;11950;51.230;4.012;2023-02-01T00:03:01;7.30;99.90
23544;DHT22;11950;51.230;4.012;2023-02-01T00:05:27;7.30;99.90
23544;DHT22;11950;51.230;4.012;2023-02-01T00:07:53;7.20;99.90
23544;DHT22;11950;51.230;4.012;2023-02-01T00:10:19;7.30;99.90
23544;DHT22;11950;51.230;4.012;2023-02-01T00:12:46;7.30;99.90
23544;DHT22;11950;51.230;4.012;2023-02-01T00:15:12;7.20;99.90
23544;DHT22;11950;51.230;4.012;2023-02-01T00:17:38;7.30;99.90
23544;DHT22;11950;51.230;4.012;2023-02-01T00:20:05;7.20;99.90
23544;DHT22;11950;51.230;4.012;2023-02-01T00:22:31;7.20;99.90
23544;DHT22;11950;51.230;4.012;2023-02-01T00:24:58;7.30;99.90
23544;DHT22;11950;51.230;4.012;2023-02-01T00:27:24;7.20;99.90
23544;DHT22;11950;51.230;4.012;2023-02-01T00:29:50;7.20;99.90
23544;DHT22;11950;51.230;4.012;2023-02-01T00:32:16;7.20;99.90
23544;DHT22;11950;51.230;4.012;2023-02-01T00:34:43;7.20;99.90
23544;DHT22;11950;51.230;4.012;2023-02-01T00:37:09;7.10;99.90
23544;DHT22;11950;51.230;4.012;2023-02-01T00:39:35;7.20;99.90
23544;DHT22;11950;51.230;4.012;2023-02-01T00:42:02;7.20;99.90
23544;DHT22;11950;51.230;4.012;2023-02-01T00:44:28;7.10;99.90
23544;DHT22;11950;51.230;4.012;2023-02-01T00:46:59;7.10;99.90
23544;DHT22;11950;51.230;4.012;2023-02-01T00:49:26;7.20;99.90
23544;DHT22;11950;51.230;4.012;2023-02-01T00:51:52;7.20;99.90
23544;DHT22;11950;51.230;4.012;2023-02-01T00:54:19;7.30;99.90
23544;DHT22;11950;51.230;4.012;2023-02-01T00:56:45;7.30;99.90
23544;DHT22;11950;51.230;4.012;2023-02-01T00:59:11;7.40;99.90
23544;DHT22;11950;51.230;4.012;2023-02-01T01:01:38;7.40;99.90
23544;DHT22;11950;51.230;4.012;2023-02-01T01:04:05;7.30;99.90
23544;DHT22;11950;51.230;4.012;2023-02-01T01:06:33;7.30;99.90
23544;DHT22;11950;51.230;4.012;2023-02-01T01:09:01;7.40;99.90
23544;DHT22;11950;51.230;4.012;2023-02-01T01:11:31;7.40;99.90
23544;DHT22;11950;51.230;4.012;2023-02-01T01:13:59;7.40;99.90
23544;DHT22;11950;51.230;4.012;2023-02-01T01:16:28;7.40;99.90
23544;DHT22;11950;51.230;4.012;2023-02-01T01:18:55;7.40;99.90
23544;DHT22;11950;51.230;4.012;2023-02-01T01:21:22;7.30;99.90
23544;DHT22;11950;51.230;4.012;2023-02-01T01:23:49;7.30;99.90
23544;DHT22;11950;51.230;4.012;2023-02-01T01:26:19;7.30;99.90
23544;DHT22;11950;51.230;4.012;2023-02-01T01:28:46;7.20;99.90
23544;DHT22;11950;51.230;4.012;2023-02-01T01:31:15;7.20;99.90
23544;DHT22;11950;51.230;4.012;2023-02-01T01:33:41;7.20;99.90
23544;DHT22;11950;51.230;4.012;2023-02-01T01:36:11;7.20;99.90
23544;DHT22;11950;51.230;4.012;2023-02-01T01:38:39;7.20;99.90
23544;DHT22;11950;51.230;4.012;2023-02-01T01:41:05;7.20;99.90
23544;DHT22;11950;51.230;4.012;2023-02-01T01:46:35;7.20;99.90
23544;DHT22;11950;51.230;4.012;2023-02-01T01:49:07;7.20;99.90
23544;DHT22;11950;51.230;4.012;2023-02-01T01:52:00;7.10;99.90
23544;DHT22;11950;51.230;4.012;2023-02-01T01:54:33;7.10;99.90
23544;DHT22;11950;51.230;4.012;2023-02-01T01:57:07;7.00;99.90
23544;DHT22;11950;51.230;4.012;2023-02-01T01:59:36;7.00;99.90
23544;DHT22;11950;51.230;4.012;2023-02-01T02:02:04;7.00;99.90
23544;DHT22;11950;51.230;4.012;2023-02-01T02:04:32;7.00;99.90
23544;DHT22;11950;51.230;4.012;2023-02-01T02:07:14;7.00;99.90
23544;DHT22;11950;51.230;4.012;2023-02-01T02:09:42;7.00;99.90
23544;DHT22;11950;51.230;4.012;2023-02-01T02:12:09;7.10;99.90
23544;DHT22;11950;51.230;4.012;2023-02-01T02:14:36;7.10;99.90
23544;DHT22;11950;51.230;4.012;2023-02-01T02:20:39;7.00;99.90
23544;DHT22;11950;51.230;4.012;2023-02-01T02:34:08;6.90;99.90
23544;DHT22;11950;51.230;4.012;2023-02-01T02:42:32;6.90;99.90
23544;DHT22;11950;51.230;4.012;2023-02-01T02:46:11;6.90;99.90
23544;DHT22;11950;51.230;4.012;2023-02-01T02:48:44;6.90;99.90
23544;DHT22;11950;51.230;4.012;2023-02-01T02:51:24;6.90;99.90
23544;DHT22;11950;51.230;4.012;2023-02-01T02:54:13;6.90;99.90
23544;DHT22;11950;51.230;4.012;2023-02-01T02:57:02;6.90;99.90
23544;DHT22;11950;51.230;4.012;2023-02-01T02:59:49;6.90;99.90
23544;DHT22;11950;51.230;4.012;2023-02-01T03:02:34;6.90;99.90
23544;DHT22;11950;51.230;4.012;2023-02-01T03:05:20;7.00;99.90
23544;DHT22;11950;51.230;4.012;2023-02-01T03:08:09;7.00;99.90
23544;DHT22;11950;51.230;4.012;2023-02-01T03:21:33;7.10;99.90
23544;DHT22;11950;51.230;4.012;2023-02-01T03:24:07;7.10;99.90
23544;DHT22;11950;51.230;4.012;2023-02-01T03:26:38;7.10;99.90
23544;DHT22;11950;51.230;4.012;2023-02-01T03:29:18;7.10;99.90
23544;DHT22;11950;51.230;4.012;2023-02-01T03:31:45;7.00;99.90
23544;DHT22;11950;51.230;4.012;2023-02-01T03:34:12;7.00;99.90
23544;DHT22;11950;51.230;4.012;2023-02-01T03:36:55;7.00;99.90
23544;DHT22;11950;51.230;4.012;2023-02-01T03:39:39;7.00;99.90
23544;DHT22;11950;51.230;4.012;2023-02-01T03:42:19;7.00;99.90
23544;DHT22;11950;51.230;4.012;2023-02-01T03:44:52;7.00;99.90
23544;DHT22;11950;51.230;4.012;2023-02-01T03:47:22;7.00;99.90
23544;DHT22;11950;51.230;4.012;2023-02-01T03:52:35;7.00;99.90
23544;DHT22;11950;51.230;4.012;2023-02-01T03:55:05;6.90;99.90
23544;DHT22;11950;51.230;4.012;2023-02-01T03:57:39;6.90;99.90
23544;DHT22;11950;51.230;4.012;2023-02-01T04:00:15;6.80;99.90
23544;DHT22;11950;51.230;4.012;2023-02-01T04:02:44;6.80;99.90
23544;DHT22;11950;51.230;4.012;2023-02-01T04:05:10;6.80;99.90
23544;DHT22;11950;51.230;4.012;2023-02-01T04:07:41;6.90;99.90
23544;DHT22;11950;51.230;4.012;2023-02-01T04:10:08;6.90;99.90
23544;DHT22;11950;51.230;4.012;2023-02-01T04:12:35;6.90;99.90
23544;DHT22;11950;51.230;4.012;2023-02-01T04:15:01;6.90;99.90
23544;DHT22;11950;51.230;4.012;2023-02-01T04:17:27;7.00;99.90
23544;DHT22;11950;51.230;4.012;2023-02-01T04:19:54;7.00;99.90
23544;DHT22;11950;51.230;4.012;2023-02-01T04:22:20;7.10;99.90
23544;DHT22;11950;51.230;4.012;2023-02-01T04:24:46;7.00;99.90
23544;DHT22;11950;51.230;4.012;2023-02-01T04:27:13;7.10;99.90
23544;DHT22;11950;51.230;4.012;2023-02-01T04:29:40;7.10;99.90
23544;DHT22;11950;51.230;4.012;2023-02-01T04:32:07;7.20;99.90
23544;DHT22;11950;51.230;4.012;2023-02-01T04:34:33;7.20;99.90
23544;DHT22;11950;51.230;4.012;2023-02-01T04:37:00;7.10;99.90
23544;DHT22;11950;51.230;4.012;2023-02-01T04:39:26;7.20;99.90
23544;DHT22;11950;51.230;4.012;2023-02-01T04:41:52;7.10;99.90
23544;DHT22;11950;51.230;4.012;2023-02-01T04:44:19;7.10;99.90
23544;DHT22;11950;51.230;4.012;2023-02-01T04:46:46;7.10;99.90
23544;DHT22;11950;51.230;4.012;2023-02-01T04:49:13;7.10;99.90
23544;DHT22;11950;51.230;4.012;2023-02-01T04:51:40;7.20;99.90
23544;DHT22;11950;51.230;4.012;2023-02-01T04:54:08;7.10;99.90
23544;DHT22;11950;51.230;4.012;2023-02-01T04:56:35;7.20;99.90
23544;DHT22;11950;51.230;4.012;2023-02-01T04:59:01;7.10;99.90
23544;DHT22;11950;51.230;4.012;2023-02-01T05:01:30;7.10;99.90
23544;DHT22;11950;51.230;4.012;2023-02-01T05:03:57;7.10;99.90
23544;DHT22;11950;51.230;4.012;2023-02-01T05:06:23;7.00;99.90
23544;DHT22;11950;51.230;4.012;2023-02-01T05:08:50;7.10;99.90
23544;DHT22;11950;51.230;4.012;2023-02-01T05:11:16;7.00;99.90
23544;DHT22;11950;51.230;4.012;2023-02-01T05:14:01;7.00;99.90
23544;DHT22;11950;51.230;4.012;2023-02-01T05:16:27;7.10;99.90
23544;DHT22;11950;51.230;4.012;2023-02-01T05:18:54;7.10;99.90
23544;DHT22;11950;51.230;4.012;2023-02-01T05:21:20;7.10;99.90
23544;DHT22;11950;51.230;4.012;2023-02-01T05:23:47;7.10;99.90
23544;DHT22;11950;51.230;4.012;2023-02-01T05:26:31;7.10;99.90
23544;DHT22;11950;51.230;4.012;2023-02-01T05:28:58;7.10;99.90
23544;DHT22;11950;51.230;4.012;2023-02-01T05:31:24;7.20;99.90
23544;DHT22;11950;51.230;4.012;2023-02-01T05:33:50;7.10;99.90
23544;DHT22;11950;51.230;4.012;2023-02-01T05:36:17;7.10;99.90
23544;DHT22;11950;51.230;4.012;2023-02-01T05:38:43;7.10;99.90
23544;DHT22;11950;51.230;4.012;2023-02-01T05:41:09;7.10;99.90
23544;DHT22;11950;51.230;4.012;2023-02-01T05:43:36;7.20;99.90
23544;DHT22;11950;51.230;4.012;2023-02-01T05:46:02;7.20;99.90
23544;DHT22;11950;51.230;4.012;2023-02-01T05:48:28;7.10;99.90
23544;DHT22;11950;51.230;4.012;2023-02-01T05:50:55;7.10;99.90
23544;DHT22;11950;51.230;4.012;2023-02-01T05:53:21;7.20;99.90
23544;DHT22;11950;51.230;4.012;2023-02-01T05:55:47;7.10;99.90
23544;DHT22;11950;51.230;4.012;2023-02-01T05:58:14;7.20;99.90
23544;DHT22;11950;51.230;4.012;2023-02-01T06:00:40;7.20;99.90
23544;DHT22;11950;51.230;4.012;2023-02-01T06:03:06;7.20;99.90
23544;DHT22;11950;51.230;4.012;2023-02-01T06:05:33;7.20;99.90
23544;DHT22;11950;51.230;4.012;2023-02-01T06:07:59;7.20;99.90
23544;DHT22;11950;51.230;4.012;2023-02-01T06:10:25;7.30;99.90
23544;DHT22;11950;51.230;4.012;2023-02-01T06:12:51;7.30;99.90
23544;DHT22;11950;51.230;4.012;2023-02-01T06:15:18;7.30;99.90
23544;DHT22;11950;51.230;4.012;2023-02-01T06:17:45;7.40;99.90
23544;DHT22;11950;51.230;4.012;2023-02-01T06:20:13;7.40;99.90
23544;DHT22;11950;51.230;4.012;2023-02-01T06:22:41;7.40;99.90
23544;DHT22;11950;51.230;4.012;2023-02-01T06:25:08;7.30;99.90
23544;DHT22;11950;51.230;4.012;2023-02-01T06:27:36;7.30;99.90
23544;DHT22;11950;51.230;4.012;2023-02-01T06:30:04;7.30;99.90
23544;DHT22;11950;51.230;4.012;2023-02-01T06:32:31;7.40;99.90
23544;DHT22;11950;51.230;4.012;2023-02-01T06:34:57;7.40;99.90
23544;DHT22;11950;51.230;4.012;2023-02-01T06:37:24;7.40;99.90
23544;DHT22;11950;51.230;4.012;2023-02-01T06:40:00;7.40;99.90
23544;DHT22;11950;51.230;4.012;2023-02-01T06:42:26;7.40;99.90
23544;DHT22;11950;51.230;4.012;2023-02-01T06:44:52;7.30;99.90
23544;DHT22;11950;51.230;4.012;2023-02-01T06:47:18;7.40;99.90
23544;DHT22;11950;51.230;4.012;2023-02-01T06:49:45;7.40;99.90
23544;DHT22;11950;51.230;4.012;2023-02-01T06:52:11;7.40;99.90
23544;DHT22;11950;51.230;4.012;2023-02-01T06:54:37;7.40;99.90
23544;DHT22;11950;51.230;4.012;2023-02-01T06:57:04;7.40;99.90
23544;DHT22;11950;51.230;4.012;2023-02-01T06:59:30;7.50;99.90
23544;DHT22;11950;51.230;4.012;2023-02-01T07:01:56;7.40;99.90
23544;DHT22;11950;51.230;4.012;2023-02-01T07:04:22;7.30;99.90
23544;DHT22;11950;51.230;4.012;2023-02-01T07:06:49;7.30;99.90
23544;DHT22;11950;51.230;4.012;2023-02-01T07:09:15;7.30;99.90
23544;DHT22;11950;51.230;4.012;2023-02-01T07:11:41;7.30;99.90
23544;DHT22;11950;51.230;4.012;2023-02-01T07:14:10;7.30;99.90
23544;DHT22;11950;51.230;4.012;2023-02-01T07:16:36;7.20;99.90
23544;DHT22;11950;51.230;4.012;2023-02-01T07:19:03;7.20;99.90
23544;DHT22;11950;51.230;4.012;2023-02-01T07:21:29;7.20;99.90
23544;DHT22;11950;51.230;4.012;2023-02-01T07:23:55;7.20;99.90
23544;DHT22;11950;51.230;4.012;2023-02-01T07:26:22;7.30;99.90
23544;DHT22;11950;51.230;4.012;2023-02-01T07:28:48;7.20;99.90
23544;DHT22;11950;51.230;4.012;2023-02-01T07:31:17;7.30;99.90
23544;DHT22;11950;51.230;4.012;2023-02-01T07:33:50;7.30;99.90
23544;DHT22;11950;51.230;4.012;2023-02-01T07:36:21;7.30;99.90
23544;DHT22;11950;51.230;4.012;2023-02-01T07:38:47;7.40;99.90
23544;DHT22;11950;51.230;4.012;2023-02-01T07:41:14;7.30;99.90
23544;DHT22;11950;51.230;4.012;2023-02-01T07:43:40;7.40;99.90
23544;DHT22;11950;51.230;4.012;2023-02-01T07:46:07;7.40;99.90
23544;DHT22;11950;51.230;4.012;2023-02-01T07:48:33;7.40;99.90
23544;DHT22;11950;51.230;4.012;2023-02-01T07:53:54;7.50;99.90
23544;DHT22;11950;51.230;4.012;2023-02-01T07:56:21;7.50;99.90
23544;DHT22;11950;51.230;4.012;2023-02-01T07:58:52;7.50;99.90
23544;DHT22;11950;51.230;4.012;2023-02-01T08:01:23;7.50;99.90
23544;DHT22;11950;51.230;4.012;2023-02-01T08:03:58;7.50;99.90
23544;DHT22;11950;51.230;4.012;2023-02-01T08:06:26;7.60;99.90
23544;DHT22;11950;51.230;4.012;2023-02-01T08:08:53;7.60;99.90
23544;DHT22;11950;51.230;4.012;2023-02-01T08:11:20;7.60;99.90
23544;DHT22;11950;51.230;4.012;2023-02-01T08:13:47;7.70;99.90
23544;DHT22;11950;51.230;4.012;2023-02-01T08:16:16;7.70;99.90
23544;DHT22;11950;51.230;4.012;2023-02-01T08:18:42;7.70;99.90
23544;DHT22;11950;51.230;4.012;2023-02-01T08:21:14;7.80;99.90
23544;DHT22;11950;51.230;4.012;2023-02-01T08:23:42;7.80;99.90
23544;DHT22;11950;51.230;4.012;2023-02-01T08:26:25;7.80;99.90
23544;DHT22;11950;51.230;4.012;2023-02-01T08:28:55;7.90;99.90
23544;DHT22;11950;51.230;4.012;2023-02-01T08:31:23;7.90;99.90
23544;DHT22;11950;51.230;4.012;2023-02-01T08:33:53;7.90;99.90
23544;DHT22;11950;51.230;4.012;2023-02-01T08:36:20;7.90;99.90
23544;DHT22;11950;51.230;4.012;2023-02-01T08:38:46;8.00;99.90
23544;DHT22;11950;51.230;4.012;2023-02-01T08:41:15;8.00;99.90
23544;DHT22;11950;51.230;4.012;2023-02-01T08:43:42;8.10;99.90
23544;DHT22;11950;51.230;4.012;2023-02-01T08:46:09;8.20;99.90
23544;DHT22;11950;51.230;4.012;2023-02-01T08:48:36;8.20;99.90
23544;DHT22;11950;51.230;4.012;2023-02-01T08:51:08;8.30;99.90
23544;DHT22;11950;51.230;4.012;2023-02-01T08:53:35;8.30;99.90
23544;DHT22;11950;51.230;4.012;2023-02-01T08:56:02;8.30;99.90
23544;DHT22;11950;51.230;4.012;2023-02-01T08:58:29;8.40;99.90
23544;DHT22;11950;51.230;4.012;2023-02-01T09:00:55;8.40;99.90
23544;DHT22;11950;51.230;4.012;2023-02-01T09:03:21;8.50;99.90
23544;DHT22;11950;51.230;4.012;2023-02-01T09:05:48;8.60;99.90
23544;DHT22;11950;51.230;4.012;2023-02-01T09:08:14;8.60;99.90
23544;DHT22;11950;51.230;4.012;2023-02-01T09:10:41;8.70;99.90
23544;DHT22;11950;51.230;4.012;2023-02-01T09:13:08;8.70;99.90
23544;DHT22;11950;51.230;4.012;2023-02-01T09:15:36;8.80;99.90
23544;DHT22;11950;51.230;4.012;2023-02-01T09:18:02;8.80;99.90
23544;DHT22;11950;51.230;4.012;2023-02-01T09:20:29;8.80;99.90
23544;DHT22;11950;51.230;4.012;2023-02-01T09:22:55;8.80;99.90
23544;DHT22;11950;51.230;4.012;2023-02-01T09:25:22;8.90;99.90
23544;DHT22;11950;51.230;4.012;2023-02-01T09:27:48;9.00;99.90
23544;DHT22;11950;51.230;4.012;2023-02-01T09:30:14;9.10;99.90
23544;DHT22;11950;51.230;4.012;2023-02-01T09:32:40;9.10;99.90
23544;DHT22;11950;51.230;4.012;2023-02-01T09:35:07;9.10;99.90
23544;DHT22;11950;51.230;4.012;2023-02-01T09:37:33;9.20;99.90
23544;DHT22;11950;51.230;4.012;2023-02-01T09:40:00;9.30;99.90
23544;DHT22;11950;51.230;4.012;2023-02-01T09:48:14;9.50;99.90
23544;DHT22;11950;51.230;4.012;2023-02-01T09:50:46;9.50;99.90
23544;DHT22;11950;51.230;4.012;2023-02-01T09:56:06;9.60;99.90
23544;DHT22;11950;51.230;4.012;2023-02-01T09:58:43;9.60;99.90
23544;DHT22;11950;51.230;4.012;2023-02-01T10:01:36;9.60;99.90
23544;DHT22;11950;51.230;4.012;2023-02-01T10:04:07;9.70;99.90
23544;DHT22;11950;51.230;4.012;2023-02-01T10:06:40;9.70;99.90
23544;DHT22;11950;51.230;4.012;2023-02-01T10:10:09;9.70;99.90
23544;DHT22;11950;51.230;4.012;2023-02-01T10:20:24;9.90;99.90
23544;DHT22;11950;51.230;4.012;2023-02-01T10:25:54;10.00;99.90
23544;DHT22;11950;51.230;4.012;2023-02-01T10:28:22;10.10;99.90
23544;DHT22;11950;51.230;4.012;2023-02-01T10:30:56;10.10;99.90
23544;DHT22;11950;51.230;4.012;2023-02-01T10:33:36;10.00;99.90
23544;DHT22;11950;51.230;4.012;2023-02-01T10:38:34;10.30;99.90
23544;DHT22;11950;51.230;4.012;2023-02-01T10:41:03;10.30;99.90
23544;DHT22;11950;51.230;4.012;2023-02-01T10:43:36;10.30;99.90
23544;DHT22;11950;51.230;4.012;2023-02-01T10:46:04;10.40;99.90
23544;DHT22;11950;51.230;4.012;2023-02-01T10:48:31;10.40;99.90
23544;DHT22;11950;51.230;4.012;2023-02-01T10:51:07;10.50;99.90
23544;DHT22;11950;51.230;4.012;2023-02-01T10:53:46;10.60;99.90
23544;DHT22;11950;51.230;4.012;2023-02-01T10:56:13;10.60;99.90
23544;DHT22;11950;51.230;4.012;2023-02-01T10:58:45;10.70;99.90
23544;DHT22;11950;51.230;4.012;2023-02-01T11:01:21;10.70;99.90
23544;DHT22;11950;51.230;4.012;2023-02-01T11:04:02;10.70;99.90
23544;DHT22;11950;51.230;4.012;2023-02-01T11:06:34;10.70;99.90
23544;DHT22;11950;51.230;4.012;2023-02-01T11:09:14;10.70;99.90
23544;DHT22;11950;51.230;4.012;2023-02-01T11:14:17;10.70;99.90
23544;DHT22;11950;51.230;4.012;2023-02-01T11:16:49;10.80;99.90
23544;DHT22;11950;51.230;4.012;2023-02-01T11:19:16;10.80;99.90
23544;DHT22;11950;51.230;4.012;2023-02-01T11:21:43;10.80;99.90
23544;DHT22;11950;51.230;4.012;2023-02-01T11:24:29;10.80;99.90
23544;DHT22;11950;51.230;4.012;2023-02-01T11:27:02;10.70;99.90
23544;DHT22;11950;51.230;4.012;2023-02-01T11:29:38;10.80;99.90
23544;DHT22;11950;51.230;4.012;2023-02-01T11:32:08;10.70;99.90
23544;DHT22;11950;51.230;4.012;2023-02-01T11:35:04;10.80;99.90
23544;DHT22;11950;51.230;4.012;2023-02-01T11:37:31;10.80;99.90
23544;DHT22;11950;51.230;4.012;2023-02-01T11:40:25;10.90;99.90
23544;DHT22;11950;51.230;4.012;2023-02-01T11:42:57;10.90;99.90
23544;DHT22;11950;51.230;4.012;2023-02-01T11:45:27;10.90;99.90
23544;DHT22;11950;51.230;4.012;2023-02-01T11:47:55;10.90;99.90
23544;DHT22;11950;51.230;4.012;2023-02-01T12:06:59;11.00;99.90
23544;DHT22;11950;51.230;4.012;2023-02-01T12:09:49;11.00;99.90
23544;DHT22;11950;51.230;4.012;2023-02-01T12:12:44;11.00;99.90
23544;DHT22;11950;51.230;4.012;2023-02-01T12:43:12;11.40;99.90
23544;DHT22;11950;51.230;4.012;2023-02-01T12:46:00;11.30;99.90
23544;DHT22;11950;51.230;4.012;2023-02-01T12:51:02;11.40;99.90
23544;DHT22;11950;51.230;4.012;2023-02-01T12:53:46;11.40;99.90
23544;DHT22;11950;51.230;4.012;2023-02-01T12:56:38;11.50;99.90
23544;DHT22;11950;51.230;4.012;2023-02-01T12:59:36;11.40;99.90
23544;DHT22;11950;51.230;4.012;2023-02-01T13:04:32;11.50;99.90
23544;DHT22;11950;51.230;4.012;2023-02-01T13:07:11;11.50;99.90
23544;DHT22;11950;51.230;4.012;2023-02-01T13:09:51;11.50;99.90
23544;DHT22;11950;51.230;4.012;2023-02-01T13:12:28;11.50;99.90
23544;DHT22;11950;51.230;4.012;2023-02-01T13:15:13;11.50;99.90
23544;DHT22;11950;51.230;4.012;2023-02-01T13:17:40;11.60;99.90
23544;DHT22;11950;51.230;4.012;2023-02-01T13:20:29;11.60;99.90
23544;DHT22;11950;51.230;4.012;2023-02-01T13:23:11;11.60;99.90
23544;DHT22;11950;51.230;4.012;2023-02-01T13:25:52;11.50;99.90
23544;DHT22;11950;51.230;4.012;2023-02-01T13:43:16;11.90;99.90
23544;DHT22;11950;51.230;4.012;2023-02-01T13:45:51;11.90;99.90
23544;DHT22;11950;51.230;4.012;2023-02-01T13:50:53;11.90;99.90
23544;DHT22;11950;51.230;4.012;2023-02-01T13:53:34;12.00;99.90
23544;DHT22;11950;51.230;4.012;2023-02-01T13:58:42;12.00;99.90
23544;DHT22;11950;51.230;4.012;2023-02-01T14:03:55;11.90;99.90
23544;DHT22;11950;51.230;4.012;2023-02-01T14:09:16;11.90;99.90
23544;DHT22;11950;51.230;4.012;2023-02-01T14:11:51;11.70;99.90
23544;DHT22;11950;51.230;4.012;2023-02-01T14:19:37;11.70;99.90
23544;DHT22;11950;51.230;4.012;2023-02-01T14:24:57;11.60;99.90
23544;DHT22;11950;51.230;4.012;2023-02-01T14:27:29;11.60;99.90
23544;DHT22;11950;51.230;4.012;2023-02-01T14:30:02;11.50;99.90
23544;DHT22;11950;51.230;4.012;2023-02-01T14:32:37;11.50;99.90
23544;DHT22;11950;51.230;4.012;2023-02-01T14:35:20;11.50;99.90
23544;DHT22;11950;51.230;4.012;2023-02-01T14:37:51;11.50;99.90
23544;DHT22;11950;51.230;4.012;2023-02-01T14:40:26;11.50;99.90
23544;DHT22;11950;51.230;4.012;2023-02-01T14:42:53;11.50;99.90
23544;DHT22;11950;51.230;4.012;2023-02-01T14:47:53;11.50;99.90
23544;DHT22;11950;51.230;4.012;2023-02-01T14:55:49;11.50;99.90
23544;DHT22;11950;51.230;4.012;2023-02-01T15:00:54;11.50;99.90
23544;DHT22;11950;51.230;4.012;2023-02-01T15:05:57;11.40;99.90
23544;DHT22;11950;51.230;4.012;2023-02-01T15:08:31;11.40;99.90
23544;DHT22;11950;51.230;4.012;2023-02-01T15:11:01;11.40;99.90
23544;DHT22;11950;51.230;4.012;2023-02-01T15:13:29;11.30;99.90
23544;DHT22;11950;51.230;4.012;2023-02-01T15:16:15;11.30;99.90
23544;DHT22;11950;51.230;4.012;2023-02-01T15:18:41;11.30;99.90
23544;DHT22;11950;51.230;4.012;2023-02-01T15:21:20;11.30;99.90
23544;DHT22;11950;51.230;4.012;2023-02-01T15:23:47;11.30;99.90
23544;DHT22;11950;51.230;4.012;2023-02-01T15:26:31;11.30;99.90
23544;DHT22;11950;51.230;4.012;2023-02-01T15:28:58;11.30;99.90
23544;DHT22;11950;51.230;4.012;2023-02-01T15:31:36;11.30;99.90
23544;DHT22;11950;51.230;4.012;2023-02-01T15:34:03;11.30;99.90
23544;DHT22;11950;51.230;4.012;2023-02-01T15:36:29;11.30;99.90
23544;DHT22;11950;51.230;4.012;2023-02-01T15:39:19;11.30;99.90
23544;DHT22;11950;51.230;4.012;2023-02-01T15:41:59;11.20;99.90
23544;DHT22;11950;51.230;4.012;2023-02-01T15:44:37;11.20;99.90
23544;DHT22;11950;51.230;4.012;2023-02-01T15:47:16;11.20;99.90
23544;DHT22;11950;51.230;4.012;2023-02-01T15:49:45;11.30;99.90
23544;DHT22;11950;51.230;4.012;2023-02-01T15:55:02;11.30;99.90
23544;DHT22;11950;51.230;4.012;2023-02-01T15:57:34;11.30;99.90
23544;DHT22;11950;51.230;4.012;2023-02-01T16:00:06;11.30;99.90
23544;DHT22;11950;51.230;4.012;2023-02-01T16:05:38;11.20;99.90
23544;DHT22;11950;51.230;4.012;2023-02-01T16:10:46;11.30;99.90
23544;DHT22;11950;51.230;4.012;2023-02-01T16:13:15;11.20;99.90
23544;DHT22;11950;51.230;4.012;2023-02-01T16:15:42;11.20;99.90
23544;DHT22;11950;51.230;4.012;2023-02-01T16:18:09;11.20;99.90
23544;DHT22;11950;51.230;4.012;2023-02-01T16:20:38;11.20;99.90
23544;DHT22;11950;51.230;4.012;2023-02-01T16:23:05;11.20;99.90
23544;DHT22;11950;51.230;4.012;2023-02-01T16:25:32;11.20;99.90
23544;DHT22;11950;51.230;4.012;2023-02-01T16:27:58;11.20;99.90
23544;DHT22;11950;51.230;4.012;2023-02-01T16:30:25;11.20;99.90
23544;DHT22;11950;51.230;4.012;2023-02-01T16:32:55;11.20;99.90
23544;DHT22;11950;51.230;4.012;2023-02-01T16:35:28;11.10;99.90
23544;DHT22;11950;51.230;4.012;2023-02-01T16:37:58;11.20;99.90
23544;DHT22;11950;51.230;4.012;2023-02-01T16:40:24;11.20;99.90
23544;DHT22;11950;51.230;4.012;2023-02-01T16:42:53;11.20;99.90
23544;DHT22;11950;51.230;4.012;2023-02-01T16:45:21;11.20;99.90
23544;DHT22;11950;51.230;4.012;2023-02-01T16:47:50;11.20;99.90
23544;DHT22;11950;51.230;4.012;2023-02-01T16:50:21;11.20;99.90
23544;DHT22;11950;51.230;4.012;2023-02-01T16:52:48;11.20;99.90
23544;DHT22;11950;51.230;4.012;2023-02-01T16:55:16;11.10;99.90
23544;DHT22;11950;51.230;4.012;2023-02-01T16:57:43;11.30;99.90
23544;DHT22;11950;51.230;4.012;2023-02-01T17:00:11;11.10;99.90
23544;DHT22;11950;51.230;4.012;2023-02-01T17:02:38;11.10;99.90
23544;DHT22;11950;51.230;4.012;2023-02-01T17:05:05;11.10;99.90
23544;DHT22;11950;51.230;4.012;2023-02-01T17:07:32;11.10;99.90
23544;DHT22;11950;51.230;4.012;2023-02-01T17:09:59;11.10;99.90
23544;DHT22;11950;51.230;4.012;2023-02-01T17:12:28;11.10;99.90
23544;DHT22;11950;51.230;4.012;2023-02-01T17:14:57;11.10;99.90
23544;DHT22;11950;51.230;4.012;2023-02-01T17:17:35;11.10;99.90
23544;DHT22;11950;51.230;4.012;2023-02-01T17:20:03;11.10;99.90
23544;DHT22;11950;51.230;4.012;2023-02-01T17:22:30;11.00;99.90
23544;DHT22;11950;51.230;4.012;2023-02-01T17:24:56;11.10;99.90
23544;DHT22;11950;51.230;4.012;2023-02-01T17:27:23;11.00;99.90
23544;DHT22;11950;51.230;4.012;2023-02-01T17:29:49;11.00;99.90
23544;DHT22;11950;51.230;4.012;2023-02-01T17:32:20;11.00;99.90
23544;DHT22;11950;51.230;4.012;2023-02-01T17:34:48;11.00;99.90
23544;DHT22;11950;51.230;4.012;2023-02-01T17:37:29;11.10;99.90
23544;DHT22;11950;51.230;4.012;2023-02-01T17:39:56;11.10;99.90
23544;DHT22;11950;51.230;4.012;2023-02-01T17:42:27;11.10;99.90
23544;DHT22;11950;51.230;4.012;2023-02-01T17:45:19;11.10;99.90
23544;DHT22;11950;51.230;4.012;2023-02-01T17:47:42;11.10;99.90
23544;DHT22;11950;51.230;4.012;2023-02-01T17:50:09;11.10;99.90
23544;DHT22;11950;51.230;4.012;2023-02-01T17:52:36;11.10;99.90
23544;DHT22;11950;51.230;4.012;2023-02-01T17:55:04;11.00;99.90
23544;DHT22;11950;51.230;4.012;2023-02-01T17:57:36;11.10;99.90
23544;DHT22;11950;51.230;4.012;2023-02-01T18:00:03;11.10;99.90
23544;DHT22;11950;51.230;4.012;2023-02-01T18:02:30;11.10;99.90
23544;DHT22;11950;51.230;4.012;2023-02-01T18:04:56;11.00;99.90
23544;DHT22;11950;51.230;4.012;2023-02-01T18:07:23;11.10;99.90
23544;DHT22;11950;51.230;4.012;2023-02-01T18:09:50;11.00;99.90
23544;DHT22;11950;51.230;4.012;2023-02-01T18:12:21;11.00;99.90
23544;DHT22;11950;51.230;4.012;2023-02-01T18:14:48;11.00;99.90
23544;DHT22;11950;51.230;4.012;2023-02-01T18:17:14;11.10;99.90
23544;DHT22;11950;51.230;4.012;2023-02-01T18:19:41;11.10;99.90
23544;DHT22;11950;51.230;4.012;2023-02-01T18:22:17;11.10;99.90
23544;DHT22;11950;51.230;4.012;2023-02-01T18:24:44;11.10;99.90
23544;DHT22;11950;51.230;4.012;2023-02-01T18:27:10;11.00;99.90
23544;DHT22;11950;51.230;4.012;2023-02-01T18:29:36;11.00;99.90
23544;DHT22;11950;51.230;4.012;2023-02-01T18:32:05;11.00;99.90
23544;DHT22;11950;51.230;4.012;2023-02-01T18:34:32;11.00;99.90
23544;DHT22;11950;51.230;4.012;2023-02-01T18:36:58;11.00;99.90
23544;DHT22;11950;51.230;4.012;2023-02-01T18:39:25;11.00;99.90
23544;DHT22;11950;51.230;4.012;2023-02-01T18:41:52;11.10;99.90
23544;DHT22;11950;51.230;4.012;2023-02-01T18:44:18;11.00;99.90
23544;DHT22;11950;51.230;4.012;2023-02-01T18:46:44;11.00;99.90
23544;DHT22;11950;51.230;4.012;2023-02-01T18:49:10;11.00;99.90